Time;durP1;ratioP1;P1;durP2;ratioP2;P2;SDS_P1;SDS_P2;PMS_P1;PMS_P2;Temp;Humidity;BMP_temperature;BMP_pressure;BME280_temperature;BME280_humidity;BME280_pressure;Samples;Min_cycle;Max_cycle;Signal;HPM_P1;HPM_P2
2022/06/23 00:01:57;;;;;;;7.35;5.15;;;18.20;99.90;;;;;;5014347;28;20478;-79
2022/06/23 00:04:27;;;;;;;6.20;5.40;;;18.20;99.90;;;;;;5006348;28;20077;-79
2022/06/23 00:06:58;;;;;;;6.03;5.40;;;18.20;99.90;;;;;;5028709;28;20473;-78
2022/06/23 00:09:51;;;;;;;7.10;5.50;;;18.10;99.90;;;;;;5023612;28;20112;-79
2022/06/23 00:12:19;;;;;;;6.88;5.22;;;18.10;99.90;;;;;;5029852;28;20033;-79
2022/06/23 00:15:12;;;;;;;6.57;5.63;;;18.10;99.90;;;;;;5019509;28;20053;-80
2022/06/23 00:17:44;;;;;;;7.32;5.80;;;18.10;99.90;;;;;;5004255;28;20046;-81
2022/06/23 00:20:20;;;;;;;6.57;5.07;;;18.00;99.90;;;;;;5004739;28;20030;-80
2022/06/23 00:22:54;;;;;;;8.23;5.82;;;18.00;99.90;;;;;;5008988;28;20424;-80
2022/06/23 00:25:29;;;;;;;8.90;5.75;;;17.90;99.90;;;;;;5013739;28;20044;-80
2022/06/23 00:27:55;;;;;;;;;;;17.90;99.90;;;;;;5013162;28;20030;-79
2022/06/23 00:30:39;;;;;;;6.40;5.63;;;17.90;99.90;;;;;;5013564;28;19920;-78
2022/06/23 00:33:26;;;;;;;6.22;5.00;;;17.80;99.90;;;;;;5003669;28;20033;-79
2022/06/23 00:35:52;;;;;;;6.68;5.97;;;17.80;99.90;;;;;;5013383;28;20029;-79
2022/06/23 00:38:26;;;;;;;5.85;5.25;;;17.70;99.90;;;;;;5022314;28;20508;-78
2022/06/23 00:40:53;;;;;;;6.45;5.05;;;17.70;99.90;;;;;;5009182;28;20044;-79
2022/06/23 00:43:20;;;;;;;5.88;4.85;;;17.60;99.90;;;;;;5013350;28;20429;-78
2022/06/23 00:46:04;;;;;;;9.07;5.43;;;17.60;99.90;;;;;;5017020;28;20037;-78
2022/06/23 00:48:55;;;;;;;5.90;5.30;;;17.60;99.90;;;;;;5008100;28;20382;-78
2022/06/23 00:51:27;;;;;;;6.03;4.97;;;17.60;99.90;;;;;;5018866;28;20037;-78
2022/06/23 00:54:06;;;;;;;6.93;5.80;;;17.50;99.90;;;;;;5007995;28;20030;-78
2022/06/23 00:56:56;;;;;;;5.22;4.70;;;17.50;99.90;;;;;;5045560;28;20037;-78
2022/06/23 00:59:54;;;;;;;7.47;5.20;;;17.50;99.90;;;;;;5010508;28;20084;-79
2022/06/23 01:02:40;;;;;;;6.25;5.65;;;17.50;99.90;;;;;;5008711;28;20034;-79
2022/06/23 01:05:20;;;;;;;7.43;4.78;;;17.40;99.90;;;;;;5008776;28;20057;-78
2022/06/23 01:08:16;;;;;;;5.88;5.28;;;17.40;99.90;;;;;;5002800;28;20436;-78
2022/06/23 01:10:52;;;;;;;6.47;5.00;;;17.40;99.90;;;;;;4997962;28;20040;-79
2022/06/23 01:13:46;;;;;;;7.43;5.20;;;17.40;99.90;;;;;;5019830;28;20030;-79
2022/06/23 01:16:22;;;;;;;5.90;5.10;;;17.30;99.90;;;;;;5035465;28;20124;-78
2022/06/23 01:19:01;;;;;;;6.22;5.55;;;17.30;99.90;;;;;;5004126;28;20065;-78
2022/06/23 01:21:37;;;;;;;6.13;5.53;;;17.20;99.90;;;;;;5014973;28;20120;-78
2022/06/23 01:24:38;;;;;;;5.82;4.93;;;17.10;99.90;;;;;;4995024;28;20065;-78
2022/06/23 01:27:39;;;;;;;6.57;5.47;;;17.00;99.90;;;;;;5011822;28;20033;-78
2022/06/23 01:30:09;;;;;;;6.85;5.80;;;16.90;99.90;;;;;;4986326;28;20564;-78
2022/06/23 01:33:02;;;;;;;7.50;5.63;;;16.80;99.90;;;;;;5010588;28;20029;-78
2022/06/23 01:36:04;;;;;;;7.40;6.45;;;16.80;99.90;;;;;;5004585;28;20378;-78
2022/06/23 01:38:52;;;;;;;8.20;6.63;;;16.70;99.90;;;;;;5005334;28;20440;-78
2022/06/23 01:41:21;;;;;;;7.18;6.47;;;16.60;99.90;;;;;;5012819;28;20034;-78
2022/06/23 01:43:59;;;;;;;7.60;6.70;;;16.60;99.90;;;;;;5015622;28;20034;-78
2022/06/23 01:46:33;;;;;;;11.05;7.93;;;16.60;99.90;;;;;;5007288;28;20116;-78
2022/06/23 01:49:12;;;;;;;8.02;6.25;;;16.50;99.90;;;;;;5017891;28;20034;-78
2022/06/23 01:51:52;;;;;;;10.50;6.72;;;16.40;99.90;;;;;;5014821;28;20029;-78
2022/06/23 01:54:21;;;;;;;9.75;6.95;;;16.40;99.90;;;;;;5004304;28;20118;-78
2022/06/23 01:56:50;;;;;;;10.65;7.30;;;16.30;99.90;;;;;;4990745;28;20023;-78
2022/06/23 01:59:43;;;;;;;9.88;7.13;;;16.30;99.90;;;;;;5004824;28;20038;-78
2022/06/23 02:02:44;;;;;;;7.50;6.18;;;16.30;99.90;;;;;;5007899;28;20034;-77
2022/06/23 02:05:29;;;;;;;8.23;7.28;;;16.30;99.90;;;;;;4994211;28;20512;-78
2022/06/23 02:08:16;;;;;;;8.85;7.72;;;16.20;99.90;;;;;;4979349;28;20527;-77
2022/06/23 02:10:55;;;;;;;10.15;7.53;;;16.30;99.90;;;;;;5007558;28;20075;-77
2022/06/23 02:13:28;;;;;;;9.23;8.20;;;16.20;99.90;;;;;;5009908;28;20042;-78
2022/06/23 02:16:16;;;;;;;9.80;7.07;;;16.20;99.90;;;;;;4997207;28;20083;-77
2022/06/23 02:18:47;;;;;;;8.00;6.95;;;16.20;99.90;;;;;;5007759;28;20453;-78
2022/06/23 02:21:39;;;;;;;7.68;6.40;;;16.30;99.90;;;;;;5003043;28;20022;-78
2022/06/23 02:24:27;;;;;;;8.52;6.63;;;16.30;99.90;;;;;;5007760;28;20389;-78
2022/06/23 02:27:25;;;;;;;8.98;7.85;;;16.30;99.90;;;;;;5035634;28;20032;-78
2022/06/23 02:30:31;;;;;;;8.93;7.47;;;16.30;99.90;;;;;;5009217;28;20043;-78
2022/06/23 02:33:10;;;;;;;11.25;7.22;;;16.30;99.90;;;;;;5001952;28;20072;-78
2022/06/23 02:35:51;;;;;;;9.52;7.70;;;16.30;99.90;;;;;;5007315;28;20376;-78
2022/06/23 02:38:34;;;;;;;8.52;7.53;;;16.20;99.90;;;;;;5012394;28;20057;-78
2022/06/23 02:41:34;;;;;;;9.93;7.05;;;16.20;99.90;;;;;;5008447;28;20032;-78
2022/06/23 02:44:05;;;;;;;8.95;7.35;;;16.20;99.90;;;;;;4998152;28;20030;-78
2022/06/23 02:46:46;;;;;;;9.15;7.28;;;16.10;99.90;;;;;;5016221;28;20034;-78
2022/06/23 02:49:22;;;;;;;8.50;7.25;;;16.20;99.90;;;;;;5000312;28;20378;-78
2022/06/23 02:52:23;;;;;;;10.95;8.02;;;16.20;99.90;;;;;;5006212;28;20057;-78
2022/06/23 02:55:15;;;;;;;9.30;7.72;;;16.20;99.90;;;;;;5007662;28;20077;-78
2022/06/23 02:58:15;;;;;;;10.30;8.20;;;16.20;99.90;;;;;;4985544;28;20031;-77
2022/06/23 03:00:59;;;;;;;8.13;6.85;;;16.20;99.90;;;;;;5020671;28;20025;-78
2022/06/23 03:03:34;;;;;;;9.60;7.63;;;16.20;99.90;;;;;;5006142;28;20038;-78
2022/06/23 03:06:12;;;;;;;11.38;7.85;;;16.10;99.90;;;;;;5015170;28;20121;-78
2022/06/23 03:09:05;;;;;;;9.88;7.22;;;16.10;99.90;;;;;;5022273;28;20475;-78
2022/06/23 03:11:52;;;;;;;9.27;8.02;;;16.00;99.90;;;;;;5002780;28;20456;-78
2022/06/23 03:14:34;;;;;;;8.70;7.20;;;16.00;99.90;;;;;;5006424;28;20512;-78
2022/06/23 03:17:10;;;;;;;10.80;7.45;;;16.00;99.90;;;;;;5009220;28;20022;-78
2022/06/23 03:19:42;;;;;;;9.38;6.97;;;15.90;99.90;;;;;;5011679;28;20400;-78
2022/06/23 03:22:38;;;;;;;7.97;6.68;;;15.90;99.90;;;;;;5040950;28;20030;-78
2022/06/23 03:25:26;;;;;;;8.35;6.53;;;15.90;99.90;;;;;;5015411;28;20045;-78
2022/06/23 03:27:56;;;;;;;7.95;6.70;;;15.90;99.90;;;;;;4996803;28;20037;-78
2022/06/23 03:30:44;;;;;;;8.25;7.28;;;15.90;99.90;;;;;;5009224;28;20052;-78
2022/06/23 03:33:20;;;;;;;8.43;6.97;;;15.90;99.90;;;;;;5005996;28;20420;-78
2022/06/23 03:36:01;;;;;;;7.70;6.85;;;15.90;99.90;;;;;;5014666;28;20061;-79
2022/06/23 03:41:36;;;;;;;12.23;6.85;;;15.90;99.90;;;;;;4996761;28;20112;-79
2022/06/23 03:44:32;;;;;;;9.90;7.55;;;16.00;99.90;;;;;;5007068;28;20034;-78
2022/06/23 03:47:12;;;;;;;12.45;7.30;;;16.00;99.90;;;;;;5004125;28;20041;-79
2022/06/23 03:49:52;;;;;;;9.05;7.35;;;15.90;99.90;;;;;;5009816;28;20406;-79
2022/06/23 03:52:31;;;;;;;8.80;7.72;;;15.80;99.90;;;;;;5026341;28;20022;-78
2022/06/23 03:55:06;;;;;;;9.48;7.45;;;15.80;99.90;;;;;;5007294;28;20041;-78
2022/06/23 03:57:44;;;;;;;12.17;7.80;;;15.70;99.90;;;;;;5012675;28;20026;-79
2022/06/23 04:00:24;;;;;;;9.27;7.60;;;15.70;99.90;;;;;;5027410;28;20264;-79
2022/06/23 04:03:18;;;;;;;8.27;7.43;;;15.80;99.90;;;;;;5005414;28;20030;-79
2022/06/23 04:05:56;;;;;;;10.50;8.93;;;15.80;99.90;;;;;;4998265;28;20037;-79
2022/06/23 04:08:24;;;;;;;11.90;8.18;;;15.80;99.90;;;;;;4996468;28;20500;-79
2022/06/23 04:10:53;;;;;;;9.13;7.82;;;15.80;99.90;;;;;;5015665;28;20025;-79
2022/06/23 04:13:19;;;;;;;9.57;7.70;;;15.90;99.90;;;;;;5028358;28;20476;-79
2022/06/23 04:15:45;;;;;;;9.73;8.25;;;16.00;99.90;;;;;;5011153;28;20030;-79
2022/06/23 04:18:19;;;;;;;10.50;8.60;;;15.90;99.90;;;;;;5011173;28;20037;-78
2022/06/23 04:21:12;;;;;;;9.23;7.45;;;16.00;99.90;;;;;;5011737;28;20045;-79
2022/06/23 04:23:48;;;;;;;8.27;7.40;;;16.00;99.90;;;;;;5010050;28;20052;-78
2022/06/23 04:26:18;;;;;;;8.85;6.78;;;16.20;99.90;;;;;;5018640;28;20088;-79
2022/06/23 04:28:57;;;;;;;9.25;6.47;;;16.20;99.90;;;;;;4990161;28;20049;-79
2022/06/23 04:31:34;;;;;;;7.97;6.95;;;16.20;99.90;;;;;;5000789;28;20046;-79
2022/06/23 04:34:01;;;;;;;7.28;6.53;;;16.30;99.90;;;;;;5009820;28;20034;-79
2022/06/23 04:36:32;;;;;;;7.07;6.30;;;16.40;99.90;;;;;;5010893;28;20038;-78
2022/06/23 04:39:04;;;;;;;7.55;6.80;;;16.40;99.90;;;;;;4989991;28;20518;-79
2022/06/23 04:41:42;;;;;;;8.02;6.57;;;16.50;99.90;;;;;;5005162;28;20035;-79
2022/06/23 04:44:17;;;;;;;8.93;7.15;;;16.50;99.90;;;;;;4976854;28;20045;-79
2022/06/23 04:46:59;;;;;;;12.68;9.02;;;16.60;99.90;;;;;;5005781;28;20026;-79
2022/06/23 04:49:30;;;;;;;15.77;11.80;;;16.60;99.90;;;;;;5015460;28;20052;-79
2022/06/23 04:52:02;;;;;;;13.38;10.18;;;16.70;99.90;;;;;;5021251;28;20022;-79
2022/06/23 04:54:54;;;;;;;17.13;12.07;;;16.70;99.90;;;;;;5008544;28;20065;-79
2022/06/23 04:57:28;;;;;;;13.23;10.40;;;16.70;99.90;;;;;;5005885;28;20497;-79
2022/06/23 04:59:58;;;;;;;13.00;10.20;;;16.70;99.90;;;;;;5007170;28;20033;-78
2022/06/23 05:02:40;;;;;;;13.23;11.63;;;16.70;99.90;;;;;;4980113;28;20516;-79
2022/06/23 05:05:18;;;;;;;13.43;11.30;;;16.80;99.90;;;;;;5014241;28;20120;-78
2022/06/23 05:07:53;;;;;;;14.95;11.68;;;16.90;99.90;;;;;;5004694;28;20493;-79
2022/06/23 05:10:27;;;;;;;14.30;11.15;;;17.00;99.90;;;;;;5001495;28;20030;-79
2022/06/23 05:12:56;;;;;;;13.48;9.98;;;17.10;99.90;;;;;;5017132;28;20201;-79
2022/06/23 05:15:32;;;;;;;10.93;8.60;;;17.10;99.90;;;;;;5017905;28;20042;-79
2022/06/23 05:18:15;;;;;;;14.35;11.48;;;17.20;99.90;;;;;;5017130;28;20053;-79
2022/06/23 05:20:40;;;;;;;18.00;11.25;;;17.40;99.90;;;;;;5010564;28;20030;-79
2022/06/23 05:23:15;;;;;;;16.33;10.80;;;17.40;99.90;;;;;;5008744;28;20030;-79
2022/06/23 05:25:47;;;;;;;11.50;9.95;;;17.50;99.90;;;;;;5016263;28;20060;-79
2022/06/23 05:28:18;;;;;;;13.95;10.30;;;17.60;99.90;;;;;;5016706;28;20393;-79
2022/06/23 05:30:57;;;;;;;11.93;10.65;;;17.80;99.90;;;;;;5011403;28;20083;-79
2022/06/23 05:33:48;;;;;;;14.30;10.18;;;18.10;99.90;;;;;;5011415;28;20038;-79
2022/06/23 05:36:27;;;;;;;15.15;11.55;;;18.50;99.90;;;;;;5011578;28;20449;-79
2022/06/23 05:39:01;;;;;;;14.55;10.85;;;18.70;99.90;;;;;;5008561;28;20057;-79
2022/06/23 05:41:36;;;;;;;15.52;10.52;;;18.90;99.90;;;;;;5015740;28;20117;-79
2022/06/23 05:44:16;;;;;;;11.93;9.10;;;19.30;99.90;;;;;;4996512;28;20106;-79
2022/06/23 05:46:44;;;;;;;10.13;8.60;;;19.70;99.90;;;;;;5009278;28;20041;-79
2022/06/23 05:49:18;;;;;;;15.70;11.07;;;20.20;99.90;;;;;;5013361;28;20481;-80
2022/06/23 05:51:51;;;;;;;11.33;10.07;;;20.70;99.90;;;;;;5013295;28;20061;-79
2022/06/23 05:54:25;;;;;;;11.98;8.13;;;21.10;99.90;;;;;;5015562;28;20287;-79
2022/06/23 05:57:01;;;;;;;10.07;8.93;;;21.50;99.90;;;;;;5012215;28;20085;-80
2022/06/23 05:59:58;;;;;;;9.75;8.07;;;21.80;99.90;;;;;;5008413;28;20041;-80
2022/06/23 06:02:37;;;;;;;9.30;7.63;;;22.30;99.90;;;;;;5008161;28;20053;-80
2022/06/23 06:05:03;;;;;;;8.80;6.75;;;22.70;99.90;;;;;;5021119;28;20566;-79
2022/06/23 06:07:36;;;;;;;12.63;7.57;;;23.00;99.90;;;;;;5010393;28;20457;-79
2022/06/23 06:10:06;;;;;;;7.50;6.65;;;23.30;99.30;;;;;;5010051;28;20439;-80
2022/06/23 06:12:36;;;;;;;7.80;7.00;;;23.70;97.70;;;;;;5011739;28;20029;-78
2022/06/23 06:15:08;;;;;;;8.05;6.43;;;24.00;96.90;;;;;;5014197;28;20064;-78
2022/06/23 06:17:36;;;;;;;10.93;7.82;;;24.30;96.90;;;;;;5013321;28;20500;-78
2022/06/23 06:20:08;;;;;;;10.50;7.03;;;24.60;94.10;;;;;;5013376;28;20029;-78
2022/06/23 06:22:53;;;;;;;7.90;7.10;;;24.90;93.70;;;;;;5007716;28;20058;-78
2022/06/23 06:25:26;;;;;;;6.82;6.15;;;25.10;92.40;;;;;;5009301;28;20607;-78
2022/06/23 06:27:54;;;;;;;7.95;6.97;;;25.30;91.80;;;;;;5009438;28;20043;-78
2022/06/23 06:30:28;;;;;;;8.48;5.60;;;25.40;92.20;;;;;;5012123;28;20034;-78
2022/06/23 06:32:54;;;;;;;6.60;5.93;;;25.70;91.00;;;;;;5006220;28;20105;-78
2022/06/23 06:35:29;;;;;;;7.63;6.47;;;25.90;86.80;;;;;;5014702;28;20042;-78
2022/06/23 06:38:17;;;;;;;5.30;4.85;;;25.90;86.00;;;;;;4992477;28;20037;-79
2022/06/23 06:40:46;;;;;;;6.38;5.68;;;26.20;89.00;;;;;;5000773;28;20113;-78
2022/06/23 06:43:17;;;;;;;5.68;5.07;;;26.40;83.30;;;;;;5012667;28;20507;-79
2022/06/23 06:45:43;;;;;;;5.95;5.43;;;26.70;81.60;;;;;;5011653;28;20026;-79
2022/06/23 06:48:23;;;;;;;5.15;4.68;;;26.90;82.60;;;;;;5007284;28;20038;-79
2022/06/23 06:50:55;;;;;;;6.95;5.75;;;27.00;81.50;;;;;;5016205;28;20521;-78
2022/06/23 06:53:28;;;;;;;5.90;5.30;;;27.30;79.70;;;;;;5004565;28;20026;-78
2022/06/23 06:56:06;;;;;;;7.20;5.75;;;27.60;79.20;;;;;;5001865;28;20046;-79
2022/06/23 06:58:50;;;;;;;7.03;6.32;;;27.90;77.20;;;;;;4999075;28;20061;-79
2022/06/23 07:01:24;;;;;;;7.85;5.30;;;27.90;77.40;;;;;;5001882;28;20029;-78
2022/06/23 07:03:52;;;;;;;7.57;6.60;;;28.20;74.90;;;;;;5010508;28;20650;-79
2022/06/23 07:06:32;;;;;;;6.85;5.38;;;28.40;72.90;;;;;;5011119;28;20037;-79
2022/06/23 07:09:10;;;;;;;6.90;6.20;;;28.60;72.90;;;;;;5016635;28;20025;-79
2022/06/23 07:11:46;;;;;;;6.75;5.85;;;28.40;71.60;;;;;;4995810;28;20563;-79
2022/06/23 07:14:27;;;;;;;6.10;5.57;;;28.60;71.00;;;;;;5001172;28;20038;-80
2022/06/23 07:17:00;;;;;;;6.45;5.80;;;28.20;70.70;;;;;;5001949;28;20040;-80
2022/06/23 07:19:44;;;;;;;6.45;5.95;;;27.90;66.60;;;;;;5006278;28;20030;-81
2022/06/23 07:22:29;;;;;;;8.30;5.70;;;27.70;67.30;;;;;;5012237;28;20029;-79
2022/06/23 07:25:01;;;;;;;9.07;7.50;;;27.50;70.20;;;;;;5019556;28;20038;-80
2022/06/23 07:27:40;;;;;;;10.35;7.18;;;27.70;68.80;;;;;;4999782;28;20041;-79
2022/06/23 07:30:17;;;;;;;7.35;6.05;;;27.80;68.10;;;;;;4997298;28;20088;-79
2022/06/23 07:33:21;;;;;;;5.20;4.70;;;28.00;66.50;;;;;;4986403;28;20038;-81
2022/06/23 07:36:04;;;;;;;5.97;5.43;;;27.80;67.80;;;;;;4966744;28;20030;-80
2022/06/23 07:38:50;;;;;;;5.40;4.82;;;27.90;66.50;;;;;;4965882;28;20061;-80
2022/06/23 07:41:19;;;;;;;6.10;5.50;;;28.30;68.20;;;;;;4991074;28;20041;-80
2022/06/23 07:43:58;;;;;;;9.20;6.28;;;28.30;66.20;;;;;;4995808;28;20145;-77
2022/06/23 07:46:25;;;;;;;7.00;6.30;;;28.00;67.20;;;;;;4997669;28;20022;-80
2022/06/23 07:48:50;;;;;;;6.70;5.25;;;28.20;68.60;;;;;;4988008;28;20044;-80
2022/06/23 07:51:18;;;;;;;6.80;6.13;;;28.20;69.30;;;;;;5006056;28;20037;-80
2022/06/23 07:53:47;;;;;;;6.85;6.05;;;28.40;68.70;;;;;;4999679;28;20125;-79
2022/06/23 07:56:16;;;;;;;8.75;6.70;;;28.70;67.80;;;;;;5001617;28;20018;-79
2022/06/23 07:58:44;;;;;;;8.52;6.78;;;28.60;66.20;;;;;;5000980;28;20038;-79
2022/06/23 08:01:27;;;;;;;12.63;10.05;;;28.20;67.20;;;;;;5007712;28;20036;-79
2022/06/23 08:04:18;;;;;;;8.02;5.90;;;27.90;69.50;;;;;;5005298;28;20021;-79
2022/06/23 08:06:44;;;;;;;8.50;7.32;;;27.90;69.30;;;;;;5021590;28;20084;-79
2022/06/23 08:09:27;;;;;;;6.78;6.18;;;28.00;69.10;;;;;;4987711;28;20116;-78
2022/06/23 08:17:54;;;;;;;8.52;6.10;;;27.50;72.00;;;;;;5004369;28;19921;-78
2022/06/23 08:20:23;;;;;;;6.95;6.25;;;27.60;71.10;;;;;;4999633;28;20121;-78
2022/06/23 08:22:49;;;;;;;6.82;5.85;;;27.70;69.30;;;;;;4985034;28;20034;-78
2022/06/23 08:25:16;;;;;;;8.13;5.70;;;27.60;68.10;;;;;;4996299;28;20540;-79
2022/06/23 08:27:44;;;;;;;6.13;5.43;;;27.50;67.40;;;;;;4988500;28;20165;-79
2022/06/23 08:30:15;;;;;;;5.90;5.40;;;27.40;68.70;;;;;;5003982;28;20080;-78
2022/06/23 08:32:45;;;;;;;5.53;4.90;;;27.10;68.50;;;;;;4998328;28;20062;-77
2022/06/23 08:35:21;;;;;;;5.90;5.30;;;27.20;71.20;;;;;;5005484;28;20030;-77
2022/06/23 08:37:56;;;;;;;6.07;5.47;;;27.20;68.90;;;;;;5004903;28;20089;-76
2022/06/23 08:40:28;;;;;;;5.85;5.15;;;27.20;70.20;;;;;;5006081;28;20065;-76
2022/06/23 08:43:21;;;;;;;6.95;5.50;;;27.20;69.70;;;;;;5002491;28;20130;-79
2022/06/23 08:46:08;;;;;;;5.50;5.00;;;27.10;71.50;;;;;;5005159;28;20051;-78
2022/06/23 08:48:47;;;;;;;7.07;5.70;;;27.40;70.20;;;;;;4982125;28;20065;-78
2022/06/23 08:51:38;;;;;;;7.57;5.90;;;27.60;68.50;;;;;;5002465;28;20604;-78
2022/06/23 08:54:04;;;;;;;5.53;4.93;;;27.70;68.30;;;;;;5023352;28;20512;-78
2022/06/23 08:56:43;;;;;;;5.93;4.70;;;27.80;66.00;;;;;;5006994;28;20026;-78
2022/06/23 08:59:38;;;;;;;8.07;6.75;;;27.80;66.20;;;;;;5003890;28;20041;-79
2022/06/23 09:02:07;;;;;;;5.97;5.38;;;27.80;66.40;;;;;;4992925;28;20507;-80
2022/06/23 09:04:53;;;;;;;8.07;5.43;;;28.00;66.80;;;;;;5007313;28;20076;-81
2022/06/23 09:07:36;;;;;;;6.20;5.70;;;28.10;67.60;;;;;;5006907;28;20118;-80
2022/06/23 09:10:09;;;;;;;5.63;5.13;;;28.40;67.10;;;;;;5005156;28;20026;-81
2022/06/23 09:12:48;;;;;;;6.72;5.55;;;28.40;66.50;;;;;;5011383;28;20032;-80
2022/06/23 09:15:26;;;;;;;5.30;4.80;;;28.50;64.20;;;;;;5001107;28;20030;-80
2022/06/23 09:18:12;;;;;;;5.45;4.47;;;28.40;63.60;;;;;;5009115;28;20033;-80
2022/06/23 09:21:16;;;;;;;6.25;4.55;;;28.20;65.00;;;;;;5004005;28;20045;-81
2022/06/23 09:24:00;;;;;;;4.78;4.38;;;28.40;68.50;;;;;;4997130;28;20018;-81
2022/06/23 09:26:45;;;;;;;5.70;5.22;;;28.50;64.00;;;;;;4995706;28;20551;-81
2022/06/23 09:29:24;;;;;;;8.80;5.75;;;28.50;63.00;;;;;;5002318;28;20069;-80
2022/06/23 09:32:00;;;;;;;5.70;5.10;;;28.00;62.90;;;;;;4995287;28;20064;-80
2022/06/23 09:34:55;;;;;;;5.90;5.40;;;27.70;63.70;;;;;;5001295;28;20407;-80
2022/06/23 09:37:48;;;;;;;6.65;5.88;;;27.60;64.10;;;;;;4998619;28;20034;-80
2022/06/23 09:40:33;;;;;;;6.13;5.43;;;27.40;65.50;;;;;;4992369;28;20062;-80
2022/06/23 09:43:07;;;;;;;6.45;4.90;;;27.30;68.80;;;;;;4997744;28;20036;-81
2022/06/23 09:45:54;;;;;;;5.60;5.10;;;27.30;65.40;;;;;;5002178;28;20034;-81
2022/06/23 09:48:58;;;;;;;8.80;5.93;;;27.50;65.00;;;;;;4997106;28;20294;-80
2022/06/23 09:51:54;;;;;;;4.97;4.57;;;27.60;65.80;;;;;;4985480;28;20097;-81
2022/06/23 09:54:22;;;;;;;;;;;27.70;63.70;;;;;;5013800;28;20030;-80
2022/06/23 09:56:52;;;;;;;5.85;4.78;;;27.70;66.30;;;;;;5018549;28;20201;-81
2022/06/23 09:59:39;;;;;;;5.78;5.18;;;27.70;66.90;;;;;;5000782;28;20111;-81
2022/06/23 10:02:29;;;;;;;5.45;4.93;;;27.70;65.50;;;;;;5009135;28;20029;-80
2022/06/23 10:05:05;;;;;;;4.75;4.35;;;27.70;66.20;;;;;;5004147;28;20025;-81
2022/06/23 10:08:00;;;;;;;6.70;5.35;;;27.50;66.10;;;;;;5002379;28;20033;-81
2022/06/23 10:10:36;;;;;;;5.40;4.93;;;27.50;67.50;;;;;;5001869;28;20026;-80
2022/06/23 10:13:29;;;;;;;6.05;4.93;;;27.40;64.60;;;;;;5004188;28;20580;-81
2022/06/23 10:16:21;;;;;;;5.00;4.45;;;27.30;64.40;;;;;;5003143;28;20025;-80
2022/06/23 10:18:47;;;;;;;5.65;4.40;;;27.40;67.40;;;;;;4996436;28;20741;-81
2022/06/23 10:21:40;;;;;;;5.68;5.07;;;27.50;65.40;;;;;;5004307;28;20026;-81
2022/06/23 10:24:17;;;;;;;4.65;4.18;;;27.60;63.80;;;;;;5005394;28;20029;-80
2022/06/23 10:27:12;;;;;;;7.93;5.32;;;27.60;64.20;;;;;;4999075;28;20045;-82
2022/06/23 10:30:06;;;;;;;4.60;4.22;;;27.50;63.60;;;;;;4994490;28;20035;-81
2022/06/23 10:32:55;;;;;;;5.72;5.07;;;27.40;65.80;;;;;;5004154;28;20056;-80
2022/06/23 10:35:39;;;;;;;7.97;5.07;;;27.40;65.40;;;;;;5001563;28;20123;-81
2022/06/23 10:38:21;;;;;;;6.57;5.18;;;27.40;67.10;;;;;;5000946;28;20121;-81
2022/06/23 10:40:58;;;;;;;4.65;4.25;;;27.30;66.80;;;;;;4999692;28;20040;-80
2022/06/23 10:43:44;;;;;;;5.53;5.03;;;27.30;63.80;;;;;;5002073;28;20041;-80
2022/06/23 10:46:31;;;;;;;5.25;4.75;;;27.50;64.70;;;;;;4994042;28;20038;-81
2022/06/23 10:49:30;;;;;;;6.93;4.80;;;27.50;64.30;;;;;;5003695;28;20417;-80
2022/06/23 10:52:08;;;;;;;5.43;4.88;;;27.60;64.40;;;;;;4989220;28;20045;-80
2022/06/23 10:54:39;;;;;;;5.63;5.05;;;27.70;63.70;;;;;;5003748;28;20117;-80
2022/06/23 10:57:38;;;;;;;6.90;5.00;;;27.70;64.10;;;;;;4998739;28;20026;-81
2022/06/23 11:00:10;;;;;;;6.05;5.03;;;27.70;63.60;;;;;;5012531;28;20726;-80
2022/06/23 11:02:51;;;;;;;6.43;5.05;;;27.50;64.20;;;;;;5002009;28;20030;-80
2022/06/23 11:05:52;;;;;;;6.47;4.93;;;27.20;63.80;;;;;;4999125;28;20032;-81
2022/06/23 11:09:12;;;;;;;5.57;4.97;;;27.30;64.90;;;;;;5000755;28;20030;-80
2022/06/23 11:12:10;;;;;;;6.35;5.13;;;27.30;65.00;;;;;;4966921;28;20110;-80
2022/06/23 11:14:55;;;;;;;5.18;4.68;;;27.40;63.00;;;;;;5002001;28;20566;-80
2022/06/23 11:17:34;;;;;;;7.63;4.97;;;27.40;62.60;;;;;;5005032;28;20145;-80
2022/06/23 11:20:18;;;;;;;4.57;3.85;;;27.50;62.40;;;;;;5028221;23;20447;-84
2022/06/23 11:22:56;;;;;;;6.63;5.03;;;27.60;62.80;;;;;;4976327;28;20035;-80
2022/06/23 11:25:44;;;;;;;4.75;4.25;;;27.80;62.60;;;;;;4969750;28;20430;-84
2022/06/23 11:28:22;;;;;;;5.68;4.70;;;27.90;62.90;;;;;;5002950;28;20031;-83
2022/06/23 11:31:01;;;;;;;5.10;4.53;;;27.90;61.60;;;;;;5005521;28;20126;-81
2022/06/23 11:33:47;;;;;;;5.20;4.40;;;27.90;60.70;;;;;;4952652;28;20070;-82
2022/06/23 11:36:50;;;;;;;5.75;4.28;;;27.90;61.30;;;;;;4960184;28;20042;-80
2022/06/23 11:39:26;;;;;;;5.22;3.88;;;28.00;60.70;;;;;;4943399;28;20677;-82
2022/06/23 11:42:01;;;;;;;7.15;3.50;;;28.10;60.50;;;;;;4945192;28;20038;-78
2022/06/23 11:44:57;;;;;;;6.53;4.25;;;28.20;59.70;;;;;;4963821;28;20074;-83
2022/06/23 11:47:35;;;;;;;4.85;4.20;;;28.20;58.90;;;;;;4944366;28;20031;-82
2022/06/23 11:50:39;;;;;;;4.30;4.00;;;28.40;58.50;;;;;;4949730;28;20058;-83
2022/06/23 11:53:20;;;;;;;5.03;4.32;;;28.50;59.40;;;;;;4943506;28;20118;-85
2022/06/23 11:55:57;;;;;;;5.80;3.53;;;28.50;57.50;;;;;;4953612;28;20075;-83
2022/06/23 11:58:53;;;;;;;4.80;4.40;;;28.50;58.70;;;;;;4962026;28;20551;-83
2022/06/23 12:01:21;;;;;;;5.53;4.38;;;28.50;57.90;;;;;;4941683;28;20123;-84
2022/06/23 12:04:41;;;;;;;4.88;4.38;;;28.60;59.70;;;;;;4982056;28;20046;-82
2022/06/23 12:07:15;;;;;;;5.00;4.50;;;28.70;57.10;;;;;;4955327;28;20062;-83
2022/06/23 12:09:54;;;;;;;6.50;4.45;;;28.80;58.00;;;;;;4961280;28;20047;-82
2022/06/23 12:12:21;;;;;;;12.93;4.80;;;29.00;57.10;;;;;;4955020;28;20093;-84
2022/06/23 12:14:47;;;;;;;4.75;4.13;;;29.10;57.10;;;;;;4967831;28;20492;-81
2022/06/23 12:17:33;;;;;;;5.45;4.95;;;29.30;58.40;;;;;;4996868;28;20035;-81
2022/06/23 12:20:19;;;;;;;4.63;4.13;;;29.40;56.10;;;;;;4968293;28;20031;-82
2022/06/23 12:23:12;;;;;;;5.32;4.32;;;29.70;56.90;;;;;;4952450;28;20034;-82
2022/06/23 12:25:47;;;;;;;4.93;4.43;;;30.00;57.20;;;;;;4967041;28;20042;-82
2022/06/23 12:28:40;;;;;;;8.52;4.32;;;30.30;54.90;;;;;;4954931;28;20035;-84
2022/06/23 12:31:21;;;;;;;4.60;4.13;;;30.40;55.40;;;;;;4950932;28;20144;-84
2022/06/23 12:34:02;;;;;;;4.70;4.20;;;30.50;54.80;;;;;;4994712;28;20038;-83
2022/06/23 12:36:35;;;;;;;4.32;3.92;;;30.70;55.80;;;;;;4953267;28;20031;-82
2022/06/23 12:39:14;;;;;;;4.38;4.00;;;31.00;53.70;;;;;;4969472;28;20031;-82
2022/06/23 12:41:53;;;;;;;3.75;3.45;;;31.20;53.80;;;;;;4972354;28;20121;-81
2022/06/23 12:44:37;;;;;;;4.68;4.28;;;31.20;52.10;;;;;;4990720;28;20077;-82
2022/06/23 12:47:26;;;;;;;5.13;4.63;;;30.80;53.20;;;;;;5001349;28;20033;-85
2022/06/23 12:50:03;;;;;;;4.85;4.32;;;30.40;53.30;;;;;;4952435;28;20035;-83
2022/06/23 12:52:41;;;;;;;6.40;4.60;;;30.00;55.40;;;;;;4958550;28;20488;-82
2022/06/23 12:55:24;;;;;;;5.75;4.25;;;29.70;55.00;;;;;;4967088;28;20061;-82
2022/06/23 12:58:04;;;;;;;5.32;3.65;;;29.90;57.20;;;;;;4967038;28;20040;-82
2022/06/23 13:01:02;;;;;;;4.15;3.80;;;30.30;57.70;;;;;;4971808;28;20038;-84
2022/06/23 13:03:45;;;;;;;4.43;4.03;;;31.00;54.60;;;;;;4967559;28;20174;-83
2022/06/23 13:06:38;;;;;;;4.32;3.92;;;31.00;54.10;;;;;;4969267;28;20027;-83
2022/06/23 13:09:19;;;;;;;4.22;3.83;;;31.30;53.30;;;;;;4968701;28;20067;-83
2022/06/23 13:12:13;;;;;;;5.07;3.90;;;31.50;52.40;;;;;;4961516;28;20035;-81
2022/06/23 13:15:06;;;;;;;4.13;3.40;;;31.80;51.30;;;;;;4950110;28;20065;-82
2022/06/23 13:17:40;;;;;;;4.38;3.78;;;32.20;53.10;;;;;;4976842;28;20110;-84
2022/06/23 13:20:38;;;;;;;3.80;3.30;;;32.50;51.20;;;;;;4954563;28;20043;-80
2022/06/23 13:23:10;;;;;;;3.97;3.63;;;32.90;52.40;;;;;;4950503;28;20106;-83
2022/06/23 13:25:49;;;;;;;4.07;3.65;;;33.40;50.70;;;;;;4968708;28;20058;-82
2022/06/23 13:28:34;;;;;;;3.78;3.47;;;33.40;48.60;;;;;;4982574;28;20266;-83
2022/06/23 13:31:27;;;;;;;3.90;3.47;;;33.60;48.70;;;;;;4957527;28;20620;-82
2022/06/23 13:33:57;;;;;;;4.43;3.40;;;33.50;48.60;;;;;;4952174;28;20093;-83
2022/06/23 13:36:36;;;;;;;11.00;5.00;;;33.50;49.10;;;;;;4968254;28;20042;-83
2022/06/23 13:39:28;;;;;;;3.90;3.60;;;33.10;46.90;;;;;;4983096;28;20037;-83
2022/06/23 13:42:11;;;;;;;5.60;3.90;;;32.90;48.90;;;;;;4966649;28;20035;-82
2022/06/23 13:44:55;;;;;;;4.22;2.83;;;32.90;50.00;;;;;;4967808;28;20035;-83
2022/06/23 13:48:12;;;;;;;4.38;3.70;;;33.00;49.70;;;;;;4967822;28;20035;-83
2022/06/23 13:50:48;;;;;;;3.83;3.50;;;32.70;47.30;;;;;;4996850;28;20033;-82
2022/06/23 13:53:26;;;;;;;5.10;4.25;;;32.10;47.70;;;;;;4964381;28;20033;-82
2022/06/23 13:55:51;;;;;;;5.38;3.83;;;31.60;48.10;;;;;;4986253;28;20034;-83
2022/06/23 13:58:51;;;;;;;4.35;3.72;;;31.20;48.60;;;;;;4984418;28;20037;-83
2022/06/23 14:01:32;;;;;;;4.30;3.72;;;30.90;49.60;;;;;;4966603;28;20030;-83
2022/06/23 14:04:19;;;;;;;4.75;3.78;;;30.70;50.40;;;;;;4971830;28;20052;-83